Time;durP1;ratioP1;P1;durP2;ratioP2;P2;SDS_P1;SDS_P2;PMS_P1;PMS_P2;Temp;Humidity;BMP_temperature;BMP_pressure;BME280_temperature;BME280_humidity;BME280_pressure;Samples;Min_cycle;Max_cycle;Signal;HPM_P1;HPM_P2
2023/07/23 00:02:11;;;;;;;;;;;;;;;17.46;35.75;100283.78;4922651;28;97894;-67
2023/07/23 00:04:38;;;;;;;;;;;;;;;17.43;35.77;100280.53;4920847;28;99293;-72
2023/07/23 00:07:04;;;;;;;;;;;;;;;17.42;35.71;100281.69;4924402;28;100417;-67
2023/07/23 00:09:33;;;;;;;;;;;;;;;17.41;35.87;100282.81;4918086;28;98203;-72
2023/07/23 00:12:00;;;;;;;;;;;;;;;17.38;35.87;100272.53;4920694;28;98419;-72
2023/07/23 00:14:26;;;;;;;;;;;;;;;17.38;35.90;100271.72;4923346;28;98311;-67
2023/07/23 00:16:54;;;;;;;;;;;;;;;17.38;35.94;100272.53;4884419;28;98000;-72
2023/07/23 00:19:20;;;;;;;;;;;;;;;17.37;35.88;100270.09;4922419;28;98188;-67
2023/07/23 00:21:49;;;;;;;;;;;;;;;17.37;35.82;100264.66;4904409;28;98172;-72
2023/07/23 00:24:21;;;;;;;;;;;;;;;17.36;36.07;100263.84;4884995;28;98400;-72
2023/07/23 00:26:47;;;;;;;;;;;;;;;17.39;35.83;100263.22;4920338;28;98372;-67
2023/07/23 00:29:15;;;;;;;;;;;;;;;17.38;35.93;100261.63;4939212;28;98039;-72
2023/07/23 00:31:41;;;;;;;;;;;;;;;17.39;35.86;100257.00;4903194;28;98218;-67
2023/07/23 00:34:09;;;;;;;;;;;;;;;17.39;35.85;100254.25;4903412;28;98129;-72
2023/07/23 00:36:35;;;;;;;;;;;;;;;17.39;35.90;100252.34;4893774;28;99991;-72
2023/07/23 00:39:03;;;;;;;;;;;;;;;17.40;35.88;100248.47;4903658;28;98070;-72
2023/07/23 00:41:30;;;;;;;;;;;;;;;17.44;35.71;100251.38;4924102;28;99556;-72
2023/07/23 00:43:56;;;;;;;;;;;;;;;17.46;35.77;100248.34;4904296;28;99035;-67
2023/07/23 00:46:23;;;;;;;;;;;;;;;17.46;35.90;100240.97;4908736;28;98217;-68
2023/07/23 00:48:49;;;;;;;;;;;;;;;17.46;35.76;100237.47;4926586;28;100270;-67
2023/07/23 00:51:16;;;;;;;;;;;;;;;17.44;35.84;100237.75;4895008;28;98283;-72
2023/07/23 00:53:45;;;;;;;;;;;;;;;17.42;35.93;100232.63;4918148;28;98629;-72
2023/07/23 00:56:11;;;;;;;;;;;;;;;17.41;35.78;100231.03;4908517;28;99953;-67
2023/07/23 00:58:38;;;;;;;;;;;;;;;17.41;35.86;100230.25;4909102;28;98509;-72
2023/07/23 01:01:08;;;;;;;;;;;;;;;17.40;35.88;100221.25;4922610;28;99452;-72
2023/07/23 01:03:34;;;;;;;;;;;;;;;17.39;35.89;100222.38;4907097;28;97974;-67
2023/07/23 01:06:02;;;;;;;;;;;;;;;17.37;35.94;100219.19;4906433;28;99611;-67
2023/07/23 01:08:28;;;;;;;;;;;;;;;17.36;35.76;100214.81;4884066;28;98104;-67
2023/07/23 01:10:55;;;;;;;;;;;;;;;17.37;35.94;100211.00;4903776;28;98434;-72
2023/07/23 01:13:21;;;;;;;;;;;;;;;17.38;35.76;100206.34;4886065;28;98147;-68
2023/07/23 01:15:48;;;;;;;;;;;;;;;17.39;36.00;100203.31;4886005;28;98618;-67
2023/07/23 01:18:15;;;;;;;;;;;;;;;17.38;35.86;100212.59;4888057;28;98559;-72
2023/07/23 01:20:42;;;;;;;;;;;;;;;17.38;35.95;100211.81;4904134;28;97981;-72
2023/07/23 01:23:09;;;;;;;;;;;;;;;17.38;36.11;100203.63;4904957;28;98468;-67
2023/07/23 01:25:36;;;;;;;;;;;;;;;17.38;35.97;100203.63;4887119;28;98024;-67
2023/07/23 01:28:04;;;;;;;;;;;;;;;17.38;36.00;100203.63;4906227;28;99185;-72
2023/07/23 01:30:30;;;;;;;;;;;;;;;17.37;35.86;100207.44;4904172;28;102661;-67
2023/07/23 01:32:57;;;;;;;;;;;;;;;17.36;35.88;100195.75;4924660;28;98103;-67
2023/07/23 01:35:25;;;;;;;;;;;;;;;17.35;35.87;100199.63;4935922;28;98483;-72
2023/07/23 01:37:51;;;;;;;;;;;;;;;17.36;35.94;100192.22;4905139;28;99533;-72
2023/07/23 01:40:20;;;;;;;;;;;;;;;17.37;35.90;100188.38;4919634;28;98631;-72
2023/07/23 01:42:46;;;;;;;;;;;;;;;17.37;35.98;100188.38;4901778;28;98562;-67
2023/07/23 01:45:14;;;;;;;;;;;;;;;17.37;35.88;100188.38;4889540;28;98525;-71
2023/07/23 01:47:41;;;;;;;;;;;;;;;17.37;35.96;100180.22;4889746;28;98611;-71
2023/07/23 01:50:08;;;;;;;;;;;;;;;17.37;36.00;100191.09;4887585;28;98235;-72
2023/07/23 01:52:35;;;;;;;;;;;;;;;17.37;36.02;100181.03;4884494;28;98030;-71
2023/07/23 01:55:02;;;;;;;;;;;;;;;17.38;36.03;100179.13;4908573;28;98358;-72
2023/07/23 01:57:29;;;;;;;;;;;;;;;17.39;35.82;100176.06;4888354;28;98632;-71
2023/07/23 01:59:55;;;;;;;;;;;;;;;17.39;35.89;100175.25;4894023;28;98353;-67
2023/07/23 02:02:21;;;;;;;;;;;;;;;17.38;36.03;100169.00;4903676;28;97991;-72
2023/07/23 02:04:48;;;;;;;;;;;;;;;17.38;35.84;100168.22;4911828;28;100090;-68
2023/07/23 02:07:16;;;;;;;;;;;;;;;17.37;36.19;100167.41;4913016;28;98355;-71
2023/07/23 02:09:49;;;;;;;;;;;;;;;17.36;36.01;100168.53;4891050;28;98247;-72
2023/07/23 02:12:16;;;;;;;;;;;;;;;17.36;36.03;100170.44;4892018;28;98352;-67
2023/07/23 02:14:44;;;;;;;;;;;;;;;17.36;36.15;100173.16;4907040;28;99116;-72
2023/07/23 02:17:10;;;;;;;;;;;;;;;17.37;36.08;100178.31;4926294;28;97944;-67
2023/07/23 02:19:37;;;;;;;;;;;;;;;17.37;36.12;100172.88;4902978;28;101004;-67
2023/07/23 02:22:05;;;;;;;;;;;;;;;17.38;36.11;100176.38;4908201;28;98322;-72
2023/07/23 02:24:31;;;;;;;;;;;;;;;17.40;36.07;100180.38;4909189;28;99310;-71
2023/07/23 02:26:57;;;;;;;;;;;;;;;17.42;36.00;100169.19;4910477;28;98691;-67
2023/07/23 02:29:24;;;;;;;;;;;;;;;17.46;36.08;100166.63;4928209;28;98432;-72
2023/07/23 02:31:54;;;;;;;;;;;;;;;17.46;36.12;100161.97;4886539;28;98199;-71
2023/07/23 02:34:21;;;;;;;;;;;;;;;17.50;36.02;100168.38;4921120;28;98457;-71
2023/07/23 02:36:48;;;;;;;;;;;;;;;17.53;36.13;100166.94;4924633;28;98492;-67
2023/07/23 02:39:15;;;;;;;;;;;;;;;17.55;36.01;100162.75;4908909;28;98404;-71
2023/07/23 02:41:42;;;;;;;;;;;;;;;17.57;36.13;100168.69;4911220;28;98321;-71
2023/07/23 02:44:09;;;;;;;;;;;;;;;17.61;35.96;100166.94;4895834;28;100822;-67
2023/07/23 02:46:35;;;;;;;;;;;;;;;17.62;36.10;100168.53;4925481;28;98564;-67
2023/07/23 02:49:02;;;;;;;;;;;;;;;17.65;35.97;100167.91;4906793;28;98490;-67
2023/07/23 02:51:28;;;;;;;;;;;;;;;17.67;36.10;100175.75;4904436;28;98647;-67
2023/07/23 02:53:55;;;;;;;;;;;;;;;17.71;36.00;100184.88;4923909;28;98267;-67
2023/07/23 02:56:21;;;;;;;;;;;;;;;17.74;36.13;100183.44;4907042;28;98180;-67
2023/07/23 02:58:50;;;;;;;;;;;;;;;17.76;36.00;100176.56;4921979;28;97895;-71
2023/07/23 03:01:16;;;;;;;;;;;;;;;17.78;36.00;100184.44;4911648;28;98900;-67
2023/07/23 03:03:47;;;;;;;;;;;;;;;17.80;36.05;100187.63;4920684;28;99335;-67
2023/07/23 03:06:13;;;;;;;;;;;;;;;17.81;35.97;100184.59;4905906;28;98353;-67
2023/07/23 03:08:40;;;;;;;;;;;;;;;17.83;36.04;100187.78;4907588;28;98466;-67
2023/07/23 03:11:06;;;;;;;;;;;;;;;17.86;36.05;100184.41;4906959;28;98114;-67
2023/07/23 03:13:35;;;;;;;;;;;;;;;17.88;35.99;100192.25;4906379;28;116806;-67
2023/07/23 03:16:02;;;;;;;;;;;;;;;17.90;36.04;100185.38;4921874;28;98362;-67
2023/07/23 03:18:29;;;;;;;;;;;;;;;17.93;36.18;100194.03;4907694;28;98599;-72
2023/07/23 03:20:56;;;;;;;;;;;;;;;17.95;36.00;100187.13;4895697;28;98098;-71
2023/07/23 03:23:22;;;;;;;;;;;;;;;17.98;35.99;100189.22;4910039;28;98214;-71
2023/07/23 03:25:49;;;;;;;;;;;;;;;18.02;36.08;100186.63;4923092;28;98523;-72
2023/07/23 03:28:16;;;;;;;;;;;;;;;18.04;35.97;100179.75;4901157;28;98149;-67
2023/07/23 03:30:43;;;;;;;;;;;;;;;18.06;36.20;100185.66;4922282;28;98593;-67
2023/07/23 03:33:09;;;;;;;;;;;;;;;18.09;36.02;100185.03;4907789;28;98140;-67
2023/07/23 03:35:36;;;;;;;;;;;;;;;18.12;36.04;100191.75;4889723;28;99984;-67
2023/07/23 03:38:02;;;;;;;;;;;;;;;18.14;36.06;100186.78;4885705;28;98565;-71
2023/07/23 03:40:29;;;;;;;;;;;;;;;18.15;36.08;100191.88;4908865;28;98025;-71
2023/07/23 03:42:55;;;;;;;;;;;;;;;18.17;35.93;100191.59;4906591;28;100409;-71
2023/07/23 03:45:24;;;;;;;;;;;;;;;18.19;36.19;100193.97;4909202;28;98152;-71
2023/07/23 03:47:50;;;;;;;;;;;;;;;18.19;36.09;100192.03;4905177;28;99387;-67
2023/07/23 03:50:18;;;;;;;;;;;;;;;18.22;36.04;100198.78;4905345;28;98437;-67
2023/07/23 03:52:44;;;;;;;;;;;;;;;18.22;36.13;100196.84;4909074;28;98200;-71
2023/07/23 03:55:11;;;;;;;;;;;;;;;18.24;36.16;100199.28;4908950;28;98240;-71
2023/07/23 03:57:38;;;;;;;;;;;;;;;18.25;36.18;100204.41;4921868;28;98110;-71
2023/07/23 04:00:05;;;;;;;;;;;;;;;18.26;36.26;100197.81;4905762;28;98352;-67
2023/07/23 04:02:33;;;;;;;;;;;;;;;18.28;36.00;100198.31;4906056;28;98270;-67
2023/07/23 04:05:00;;;;;;;;;;;;;;;18.29;36.23;100202.63;4906539;28;98785;-71
2023/07/23 04:07:27;;;;;;;;;;;;;;;18.32;36.01;100201.19;4902838;28;99111;-67
2023/07/23 04:09:54;;;;;;;;;;;;;;;18.32;35.98;100198.44;4901690;28;98271;-67
2023/07/23 04:12:22;;;;;;;;;;;;;;;18.34;36.02;100194.25;4902552;28;98121;-71
2023/07/23 04:14:50;;;;;;;;;;;;;;;18.37;36.08;100203.72;4904097;28;98536;-71
2023/07/23 04:17:17;;;;;;;;;;;;;;;18.39;36.09;100199.56;4906439;28;98290;-67
2023/07/23 04:19:43;;;;;;;;;;;;;;;18.42;36.04;100206.28;4891067;28;99431;-67
2023/07/23 04:22:10;;;;;;;;;;;;;;;18.44;36.14;100206.75;4920301;28;98248;-72
2023/07/23 04:24:37;;;;;;;;;;;;;;;18.46;36.05;100200.97;4919305;28;99421;-68
2023/07/23 04:27:03;;;;;;;;;;;;;;;18.46;35.99;100203.69;4903407;28;100837;-67
2023/07/23 04:29:31;;;;;;;;;;;;;;;18.43;36.16;100202.44;4923167;28;98609;-71
2023/07/23 04:31:57;;;;;;;;;;;;;;;18.48;36.19;100198.72;4902055;28;98246;-71
2023/07/23 04:34:24;;;;;;;;;;;;;;;18.54;36.02;100205.59;4903409;28;97984;-67
2023/07/23 04:36:51;;;;;;;;;;;;;;;18.61;35.92;100206.69;4885987;28;99439;-71
2023/07/23 04:39:19;;;;;;;;;;;;;;;18.70;35.87;100205.84;4918667;28;99479;-68
2023/07/23 04:41:48;;;;;;;;;;;;;;;18.77;36.04;100209.69;4922542;28;98189;-72
2023/07/23 04:44:14;;;;;;;;;;;;;;;18.85;35.94;100210.78;4904128;28;98646;-71
2023/07/23 04:46:41;;;;;;;;;;;;;;;18.91;35.98;100209.50;4919477;28;98707;-67
2023/07/23 04:49:08;;;;;;;;;;;;;;;18.93;36.00;100214.59;4884257;28;98393;-67
2023/07/23 04:51:35;;;;;;;;;;;;;;;18.91;35.98;100209.50;4907520;28;98184;-67
2023/07/23 04:54:02;;;;;;;;;;;;;;;18.93;35.91;100207.22;4904642;28;100282;-71
2023/07/23 04:56:28;;;;;;;;;;;;;;;18.97;35.97;100223.75;4921022;28;98298;-67
2023/07/23 04:58:55;;;;;;;;;;;;;;;19.03;35.88;100220.50;4900872;28;98247;-67
2023/07/23 05:01:21;;;;;;;;;;;;;;;19.14;35.91;100215.47;4908063;28;99286;-67
2023/07/23 05:03:48;;;;;;;;;;;;;;;19.23;35.66;100218.13;4914613;28;98344;-71
2023/07/23 05:06:15;;;;;;;;;;;;;;;19.27;35.88;100216.34;4900617;28;98774;-67
2023/07/23 05:08:41;;;;;;;;;;;;;;;19.30;35.58;100221.16;4896724;28;98471;-67
2023/07/23 05:11:08;;;;;;;;;;;;;;;19.33;35.78;100215.81;4914664;28;98359;-67
2023/07/23 05:13:35;;;;;;;;;;;;;;;19.34;35.70;100224.81;4899652;28;99071;-67
2023/07/23 05:16:02;;;;;;;;;;;;;;;19.42;35.76;100215.75;4915375;28;98988;-67
2023/07/23 05:18:29;;;;;;;;;;;;;;;19.52;35.95;100223.56;4933547;28;98388;-71
2023/07/23 05:20:56;;;;;;;;;;;;;;;19.59;35.53;100223.81;4867416;28;100271;-67
2023/07/23 05:23:23;;;;;;;;;;;;;;;19.65;35.67;100218.19;4870991;28;98215;-71
2023/07/23 05:25:50;;;;;;;;;;;;;;;19.69;35.56;100222.66;4916144;28;98364;-67
2023/07/23 05:28:17;;;;;;;;;;;;;;;19.74;35.66;100218.94;4865647;28;99610;-67
2023/07/23 05:30:43;;;;;;;;;;;;;;;19.79;35.65;100222.25;4916905;28;99769;-67
2023/07/23 05:33:10;;;;;;;;;;;;;;;19.94;35.62;100226.31;4917335;28;100824;-71
2023/07/23 05:35:37;;;;;;;;;;;;;;;20.17;35.37;100221.25;4897279;28;98150;-71
2023/07/23 05:38:04;;;;;;;;;;;;;;;20.34;35.38;100220.25;4871279;28;98629;-71
2023/07/23 05:40:35;;;;;;;;;;;;;;;20.31;35.48;100216.25;4922204;28;98367;-67
2023/07/23 05:43:07;;;;;;;;;;;;;;;20.27;35.56;100218.06;4919100;28;97946;-71
2023/07/23 05:45:34;;;;;;;;;;;;;;;20.28;35.67;100224.38;4888119;28;98434;-67
2023/07/23 05:48:00;;;;;;;;;;;;;;;20.34;35.50;100221.06;4886290;28;99588;-71
2023/07/23 05:50:27;;;;;;;;;;;;;;;20.63;35.25;100233.00;4914767;28;99121;-67
2023/07/23 05:52:54;;;;;;;;;;;;;;;20.94;35.10;100223.44;4900738;28;98396;-67
2023/07/23 05:55:21;;;;;;;;;;;;;;;21.08;35.12;100229.38;4917235;28;98414;-71
2023/07/23 05:57:48;;;;;;;;;;;;;;;21.16;35.21;100216.72;4902441;28;98104;-67
2023/07/23 06:00:15;;;;;;;;;;;;;;;21.31;35.13;100216.78;4901226;28;98505;-67
2023/07/23 06:02:41;;;;;;;;;;;;;;;21.49;35.05;100220.09;4919091;28;98642;-67
2023/07/23 06:05:09;;;;;;;;;;;;;;;21.70;34.92;100217.19;4898575;28;98260;-72
2023/07/23 06:07:37;;;;;;;;;;;;;;;21.87;34.97;100216.09;4899815;28;98503;-67
2023/07/23 06:10:04;;;;;;;;;;;;;;;21.91;35.00;100216.97;4894926;28;98420;-71
2023/07/23 06:12:31;;;;;;;;;;;;;;;21.81;35.19;100215.56;4916882;28;100173;-71
2023/07/23 06:14:58;;;;;;;;;;;;;;;21.73;35.29;100213.75;4901265;28;98489;-72
2023/07/23 06:17:25;;;;;;;;;;;;;;;21.68;35.29;100215.94;4887974;28;98321;-68
2023/07/23 06:19:52;;;;;;;;;;;;;;;21.62;35.35;100211.84;4899722;28;98063;-68
2023/07/23 06:22:19;;;;;;;;;;;;;;;21.59;35.47;100213.34;4903008;28;98360;-72
2023/07/23 06:24:45;;;;;;;;;;;;;;;21.54;35.45;100211.63;4905017;28;98511;-68
2023/07/23 06:27:13;;;;;;;;;;;;;;;21.51;35.57;100212.31;4897631;28;98665;-72
2023/07/23 06:29:39;;;;;;;;;;;;;;;21.51;35.49;100208.78;4889024;28;98143;-68
2023/07/23 06:32:07;;;;;;;;;;;;;;;21.58;35.44;100198.03;4898871;28;98295;-72
2023/07/23 06:34:36;;;;;;;;;;;;;;;21.74;35.37;100203.59;4918690;28;99476;-73
2023/07/23 06:37:05;;;;;;;;;;;;;;;21.87;35.25;100205.13;4886624;28;98173;-72
2023/07/23 06:39:32;;;;;;;;;;;;;;;21.97;35.29;100204.63;4930670;28;98337;-68
2023/07/23 06:41:58;;;;;;;;;;;;;;;22.12;35.24;100202.25;4898855;28;98320;-68
2023/07/23 06:44:25;;;;;;;;;;;;;;;22.24;35.08;100200.28;4913496;28;99004;-72
2023/07/23 06:46:52;;;;;;;;;;;;;;;22.34;35.07;100198.16;4902984;28;97884;-68
2023/07/23 06:49:19;;;;;;;;;;;;;;;22.39;35.37;100198.69;4914324;28;98182;-68
2023/07/23 06:51:46;;;;;;;;;;;;;;;22.41;35.25;100193.66;4894234;28;98951;-72
2023/07/23 06:54:13;;;;;;;;;;;;;;;22.44;35.08;100200.38;4917015;28;99416;-67
2023/07/23 06:56:39;;;;;;;;;;;;;;;22.49;35.06;100195.44;4884415;28;98208;-72
2023/07/23 06:59:06;;;;;;;;;;;;;;;22.58;35.16;100192.50;4915613;28;99306;-68
2023/07/23 07:01:33;;;;;;;;;;;;;;;22.71;34.91;100193.19;4914996;28;99646;-68
2023/07/23 07:04:02;;;;;;;;;;;;;;;22.84;34.97;100189.22;4900635;28;98507;-73
2023/07/23 07:06:30;;;;;;;;;;;;;;;23.00;34.65;100191.97;4929623;28;98207;-68
2023/07/23 07:08:59;;;;;;;;;;;;;;;23.05;34.86;100188.94;4891106;28;98431;-72
2023/07/23 07:11:25;;;;;;;;;;;;;;;23.08;34.98;100185.47;4906959;28;103035;-67
2023/07/23 07:13:51;;;;;;;;;;;;;;;23.15;34.81;100190.34;4905442;28;98483;-67
2023/07/23 07:16:20;;;;;;;;;;;;;;;23.20;34.98;100185.34;4886640;28;99470;-68
2023/07/23 07:18:46;;;;;;;;;;;;;;;23.20;34.99;100187.31;4923748;28;99885;-72
2023/07/23 07:21:13;;;;;;;;;;;;;;;23.18;34.91;100186.84;4910296;28;99781;-67
2023/07/23 07:23:42;;;;;;;;;;;;;;;23.16;35.07;100181.72;4906853;28;98255;-72
2023/07/23 07:26:09;;;;;;;;;;;;;;;23.14;35.27;100184.03;4904104;28;98334;-68
2023/07/23 07:28:35;;;;;;;;;;;;;;;23.16;35.11;100176.22;4888030;28;98097;-68
2023/07/23 07:31:03;;;;;;;;;;;;;;;23.24;34.89;100172.47;4882581;28;98719;-68
2023/07/23 07:33:29;;;;;;;;;;;;;;;23.43;34.96;100177.22;4884771;28;98285;-68
2023/07/23 07:36:00;;;;;;;;;;;;;;;23.66;34.80;100168.28;4893978;28;98183;-72
2023/07/23 07:38:27;;;;;;;;;;;;;;;23.99;34.29;100171.28;4916736;28;98379;-69
2023/07/23 07:41:01;;;;;;;;;;;;;;;24.46;34.23;100167.41;4902158;28;98594;-72
2023/07/23 07:43:27;;;;;;;;;;;;;;;25.15;33.56;100166.50;4918649;28;98326;-68
2023/07/23 07:45:59;;;;;;;;;;;;;;;25.51;33.49;100155.94;4902534;28;98431;-72
2023/07/23 07:48:26;;;;;;;;;;;;;;;25.69;33.73;100154.97;4888716;28;99437;-67
2023/07/23 07:51:02;;;;;;;;;;;;;;;26.00;33.59;100154.94;4921905;28;98614;-72
2023/07/23 07:53:29;;;;;;;;;;;;;;;27.21;32.70;100153.16;4918423;28;97996;-67
2023/07/23 07:55:56;;;;;;;;;;;;;;;27.43;32.83;100154.03;4919956;28;98483;-72
2023/07/23 07:58:27;;;;;;;;;;;;;;;27.23;33.20;100152.75;4903363;28;99351;-72
2023/07/23 08:00:56;;;;;;;;;;;;;;;27.01;33.46;100152.63;4917904;28;98445;-68
2023/07/23 08:03:27;;;;;;;;;;;;;;;26.99;33.50;100151.41;4890959;28;97959;-72
2023/07/23 08:05:55;;;;;;;;;;;;;;;26.92;33.58;100147.44;4905108;28;98614;-68
2023/07/23 08:08:30;;;;;;;;;;;;;;;26.75;33.85;100145.34;4937692;28;98054;-72
2023/07/23 08:10:59;;;;;;;;;;;;;;;26.53;34.09;100149.94;4906603;28;98328;-67
2023/07/23 08:13:25;;;;;;;;;;;;;;;26.34;34.10;100142.63;4907980;28;98299;-67
2023/07/23 08:15:55;;;;;;;;;;;;;;;26.20;34.19;100142.50;4913929;28;102055;-67
2023/07/23 08:18:24;;;;;;;;;;;;;;;26.01;34.40;100143.50;4909335;28;103519;-73
2023/07/23 08:20:52;;;;;;;;;;;;;;;25.87;34.44;100137.84;4904014;28;98109;-67
2023/07/23 08:23:20;;;;;;;;;;;;;;;25.83;34.52;100145.31;4920780;28;98531;-72
2023/07/23 08:25:53;;;;;;;;;;;;;;;25.96;34.45;100130.03;4918420;28;98269;-73
2023/07/23 08:28:22;;;;;;;;;;;;;;;26.36;33.80;100133.94;4921015;28;98295;-67
2023/07/23 08:30:49;;;;;;;;;;;;;;;27.93;32.85;100128.50;4917134;28;99271;-67
2023/07/23 08:33:17;;;;;;;;;;;;;;;31.12;30.25;100125.88;4888129;28;99888;-73
2023/07/23 08:35:43;;;;;;;;;;;;;;;32.33;30.37;100134.56;4905738;28;99253;-68
2023/07/23 08:38:10;;;;;;;;;;;;;;;31.84;30.84;100139.69;4882722;28;98150;-68
2023/07/23 08:40:44;;;;;;;;;;;;;;;31.66;31.38;100129.56;4895734;28;101437;-68
2023/07/23 08:43:29;;;;;;;;;;;;;;;31.91;31.38;100120.91;4899860;28;99173;-68
2023/07/23 08:46:01;;;;;;;;;;;;;;;32.42;30.89;100124.47;4936633;28;98116;-74
2023/07/23 08:48:42;;;;;;;;;;;;;;;34.02;29.64;100116.88;4934202;28;98974;-68
2023/07/23 08:51:09;;;;;;;;;;;;;;;36.05;28.73;100118.84;4917988;28;98203;-69
2023/07/23 08:53:36;;;;;;;;;;;;;;;37.66;27.72;100115.94;4902761;28;98313;-69
2023/07/23 08:56:03;;;;;;;;;;;;;;;38.72;28.12;100112.75;4899621;28;99534;-72
2023/07/23 08:58:30;;;;;;;;;;;;;;;39.31;27.92;100100.50;4903152;28;99515;-70
2023/07/23 09:00:57;;;;;;;;;;;;;;;40.29;27.65;100103.81;4906877;28;98223;-71
2023/07/23 09:03:23;;;;;;;;;;;;;;;41.17;27.59;100104.00;4890989;28;98477;-71
2023/07/23 09:05:50;;;;;;;;;;;;;;;41.66;27.53;100096.06;4921141;28;98164;-71
2023/07/23 09:08:16;;;;;;;;;;;;;;;42.39;27.40;100078.06;4885817;28;97963;-71
2023/07/23 09:10:42;;;;;;;;;;;;;;;42.78;27.60;100080.56;4920118;28;98716;-72
2023/07/23 09:13:14;;;;;;;;;;;;;;;43.43;26.83;100065.16;4901732;28;98090;-70
2023/07/23 09:15:52;;;;;;;;;;;;;;;43.77;27.26;100061.28;4885969;28;98634;-70
2023/07/23 09:18:19;;;;;;;;;;;;;;;43.61;27.53;100056.28;4890870;28;98096;-71
2023/07/23 09:20:52;;;;;;;;;;;;;;;43.73;27.68;100052.22;4905430;28;98178;-71
2023/07/23 09:23:20;;;;;;;;;;;;;;;44.28;27.18;100067.22;4905087;28;98369;-71
2023/07/23 09:25:47;;;;;;;;;;;;;;;43.01;28.12;100056.06;4920140;28;98069;-74
2023/07/23 09:28:25;;;;;;;;;;;;;;;40.73;29.73;100053.13;4886305;28;100018;-71
2023/07/23 09:30:56;;;;;;;;;;;;;;;39.03;30.99;100047.81;4885084;28;98228;-71
2023/07/23 09:33:35;;;;;;;;;;;;;;;39.19;30.56;100043.84;4906682;28;101194;-70
2023/07/23 09:36:02;;;;;;;;;;;;;;;39.96;29.69;100040.53;4922617;28;99768;-71
2023/07/23 09:38:30;;;;;;;;;;;;;;;40.82;29.07;100044.56;4923924;28;98882;-70
2023/07/23 09:40:56;;;;;;;;;;;;;;;41.28;29.05;100032.78;4888602;28;98585;-70
2023/07/23 09:43:24;;;;;;;;;;;;;;;42.45;28.21;100034.88;4891415;28;98007;-70
2023/07/23 09:45:52;;;;;;;;;;;;;;;43.58;27.15;100038.22;4922852;28;98235;-70
2023/07/23 09:48:21;;;;;;;;;;;;;;;42.09;28.72;100026.50;4922928;28;98334;-70
2023/07/23 09:50:56;;;;;;;;;;;;;;;44.22;26.95;100030.28;4892943;28;98321;-70
2023/07/23 09:53:23;;;;;;;;;;;;;;;44.73;26.76;100027.63;4896019;28;100882;-73
2023/07/23 09:55:49;;;;;;;;;;;;;;;45.57;26.77;100030.44;4893555;28;98578;-74
2023/07/23 09:58:21;;;;;;;;;;;;;;;45.93;26.50;100022.81;4889458;28;99582;-70
2023/07/23 10:00:49;;;;;;;;;;;;;;;46.58;26.28;100012.94;4902472;28;98398;-70
2023/07/23 10:03:17;;;;;;;;;;;;;;;46.93;26.20;100008.50;4908402;28;99465;-73
2023/07/23 10:05:44;;;;;;;;;;;;;;;47.54;26.03;100012.84;4902960;28;99015;-73
2023/07/23 10:08:11;;;;;;;;;;;;;;;47.42;26.22;100006.50;4917460;28;98162;-74
2023/07/23 10:10:40;;;;;;;;;;;;;;;45.85;27.38;100001.13;4922303;28;98650;-73
2023/07/23 10:13:07;;;;;;;;;;;;;;;46.87;26.57;99991.44;4888692;28;98176;-73
2023/07/23 10:15:34;;;;;;;;;;;;;;;43.52;29.18;99985.59;4901252;28;98057;-73
2023/07/23 10:18:01;;;;;;;;;;;;;;;43.61;29.02;99974.03;4884726;28;99043;-73
2023/07/23 10:20:29;;;;;;;;;;;;;;;42.19;29.98;99984.66;4906019;28;98163;-73
2023/07/23 10:22:56;;;;;;;;;;;;;;;40.62;30.61;99976.69;4889636;28;98271;-73
2023/07/23 10:25:32;;;;;;;;;;;;;;;41.27;29.75;99980.34;4908114;28;100156;-73
2023/07/23 10:28:07;;;;;;;;;;;;;;;40.69;30.06;99974.25;4905312;28;98246;-70
2023/07/23 10:30:39;;;;;;;;;;;;;;;41.59;29.01;99978.50;4905751;28;98117;-74
2023/07/23 10:33:11;;;;;;;;;;;;;;;42.41;28.72;99973.63;4907314;28;98156;-74
2023/07/23 10:35:52;;;;;;;;;;;;;;;43.10;28.53;99967.28;4940245;28;98543;-70
2023/07/23 10:38:30;;;;;;;;;;;;;;;43.66;27.80;99966.84;4938579;28;98446;-74
2023/07/23 10:40:59;;;;;;;;;;;;;;;43.83;28.02;99967.72;4907662;28;98312;-74
2023/07/23 10:43:50;;;;;;;;;;;;;;;44.20;27.49;99969.63;4904633;28;99608;-74
2023/07/23 10:46:20;;;;;;;;;;;;;;;44.61;27.36;99966.34;4918884;28;98098;-70
2023/07/23 10:48:55;;;;;;;;;;;;;;;44.85;27.07;99963.81;4907458;28;98380;-74
2023/07/23 10:51:23;;;;;;;;;;;;;;;44.91;26.99;99961.72;4923017;28;98505;-70
2023/07/23 10:54:06;;;;;;;;;;;;;;;45.31;26.96;99939.72;4883199;28;98122;-76
2023/07/23 10:56:35;;;;;;;;;;;;;;;45.78;26.47;99946.28;4917430;28;98498;-76
2023/07/23 10:59:13;;;;;;;;;;;;;;;45.64;26.42;99941.72;4899974;28;98344;-70
2023/07/23 11:01:43;;;;;;;;;;;;;;;45.99;26.52;99948.81;4922030;28;99701;-77
2023/07/23 11:04:17;;;;;;;;;;;;;;;46.02;26.62;99942.84;4930935;28;98428;-76
2023/07/23 11:07:06;;;;;;;;;;;;;;;44.76;27.60;99930.75;4906887;28;98724;-74
2023/07/23 11:09:37;;;;;;;;;;;;;;;43.12;28.32;99917.31;4916123;28;98229;-75
2023/07/23 11:12:08;;;;;;;;;;;;;;;41.92;29.10;99915.19;4905236;28;98407;-75
2023/07/23 11:14:35;;;;;;;;;;;;;;;41.99;28.71;99914.75;4918967;28;98328;-70
2023/07/23 11:17:03;;;;;;;;;;;;;;;43.77;27.35;99919.44;4882999;28;98411;-70
2023/07/23 11:19:31;;;;;;;;;;;;;;;44.44;26.93;99924.53;4918182;28;98766;-75
2023/07/23 11:22:05;;;;;;;;;;;;;;;44.62;26.84;99908.28;4920217;28;98482;-76
2023/07/23 11:24:33;;;;;;;;;;;;;;;44.50;27.14;99928.16;4913050;28;98079;-75
2023/07/23 11:27:03;;;;;;;;;;;;;;;42.20;28.98;99906.22;4903672;28;99435;-74
2023/07/23 11:29:30;;;;;;;;;;;;;;;42.46;28.60;99912.66;4924008;28;99203;-70
2023/07/23 11:31:58;;;;;;;;;;;;;;;43.15;27.96;99921.19;4888140;28;98892;-76
2023/07/23 11:34:26;;;;;;;;;;;;;;;43.91;27.46;99908.44;4903322;28;98813;-71
2023/07/23 11:36:54;;;;;;;;;;;;;;;43.26;27.80;99909.16;4917274;28;98085;-70
2023/07/23 11:39:26;;;;;;;;;;;;;;;43.06;28.24;99905.16;4908814;28;98033;-75
2023/07/23 11:41:53;;;;;;;;;;;;;;;43.12;27.95;99891.06;4887833;28;98882;-70
2023/07/23 11:44:21;;;;;;;;;;;;;;;43.03;27.86;99896.88;4887544;28;98020;-76
2023/07/23 11:46:48;;;;;;;;;;;;;;;41.81;29.19;99898.06;4904076;28;98324;-70
2023/07/23 11:49:14;;;;;;;;;;;;;;;41.82;28.76;99885.50;4910690;28;100036;-71
2023/07/23 11:51:41;;;;;;;;;;;;;;;40.97;29.40;99894.84;4905178;28;97936;-70
2023/07/23 11:54:11;;;;;;;;;;;;;;;40.97;29.48;99889.22;4901164;28;98214;-70
2023/07/23 11:56:38;;;;;;;;;;;;;;;40.04;30.35;99882.97;4923433;28;98084;-76
2023/07/23 11:59:05;;;;;;;;;;;;;;;39.81;30.21;99890.22;4936984;28;99634;-70
2023/07/23 12:01:31;;;;;;;;;;;;;;;40.13;29.71;99877.31;4873556;28;99205;-70
2023/07/23 12:04:03;;;;;;;;;;;;;;;39.73;29.73;99881.41;4910902;28;100336;-76
2023/07/23 12:06:30;;;;;;;;;;;;;;;39.47;29.98;99880.31;4919406;28;98251;-76
2023/07/23 12:08:56;;;;;;;;;;;;;;;38.92;30.16;99866.53;4886411;28;99676;-70
2023/07/23 12:11:23;;;;;;;;;;;;;;;38.40;30.64;99855.28;4902013;28;99590;-77
2023/07/23 12:13:53;;;;;;;;;;;;;;;38.37;30.48;99859.03;4888843;28;98058;-70
2023/07/23 12:16:32;;;;;;;;;;;;;;;38.41;29.95;99858.88;4923937;28;98112;-70
2023/07/23 12:19:11;;;;;;;;;;;;;;;38.17;30.14;99858.75;4936322;28;98511;-77
2023/07/23 12:21:40;;;;;;;;;;;;;;;38.56;30.03;99854.16;4921374;28;98756;-70
2023/07/23 12:24:22;;;;;;;;;;;;;;;38.86;29.45;99848.72;4903446;28;98493;-70
2023/07/23 12:26:58;;;;;;;;;;;;;;;38.94;29.25;99850.69;4903911;28;98153;-75
2023/07/23 12:29:27;;;;;;;;;;;;;;;38.67;30.05;99843.13;4917495;28;99200;-70
2023/07/23 12:32:12;;;;;;;;;;;;;;;38.31;29.73;99852.44;4879420;28;98219;-77
2023/07/23 12:34:40;;;;;;;;;;;;;;;37.78;30.11;99847.97;4916069;28;98983;-77
2023/07/23 12:37:07;;;;;;;;;;;;;;;37.26;30.68;99841.38;4916419;28;98103;-76
2023/07/23 12:39:33;;;;;;;;;;;;;;;36.75;30.60;99832.63;4884025;28;98314;-70
2023/07/23 12:41:59;;;;;;;;;;;;;;;36.37;30.61;99834.44;4901796;28;98132;-74
2023/07/23 12:44:26;;;;;;;;;;;;;;;36.19;30.95;99833.56;4884898;28;98317;-75